Terminal Aerodrome Forecast
Issued by NWS Missoula, MT

Home | Current Version | Previous Version | Text Only | Print | Product List | Glossary On
Versions: 1 2 3 4 5 6 7 8 9 10 11 12 13 14 15 16 17 18
000
FTUS45 KMSO 230500
TAFBTM
TAF
KBTM 230536Z 2306/2406 19006KT P6SM VCSH BKN090
     FM231000 VRB06G18KT P6SM -RA VCTS SCT060 BKN080CB
     FM231300 14003KT P6SM SCT120
     FM232100 19010G20KT P6SM VCSH BKN100=

USA.gov is the U.S. government's official web portal to all federal, state and local government web resources and services.